createdAt,value
2017-05-09T00:00:57.038Z,7.52
2017-05-09T00:03:25.084Z,7.18
2017-05-09T00:05:52.003Z,7.74
2017-05-09T00:08:18.929Z,7.98
2017-05-09T00:10:45.853Z,7.87
2017-05-09T00:13:12.767Z,7.82
2017-05-09T00:15:39.666Z,8.82
2017-05-09T00:18:06.591Z,7.47
2017-05-09T00:20:33.510Z,8.13
2017-05-09T00:23:01.188Z,7.77
2017-05-09T00:25:28.113Z,8.70
2017-05-09T00:27:55.797Z,8.18
2017-05-09T00:30:22.710Z,8.48
2017-05-09T00:32:49.637Z,9.37
2017-05-09T00:35:16.571Z,9.17
2017-05-09T00:37:43.479Z,9.68
2017-05-09T00:40:10.406Z,9.85
2017-05-09T00:42:38.082Z,7.72
2017-05-09T00:45:05.022Z,8.60
2017-05-09T00:47:31.955Z,7.68
2017-05-09T00:49:59.623Z,6.97
2017-05-09T00:52:26.534Z,6.80
2017-05-09T00:54:53.447Z,6.70
2017-05-09T00:57:20.381Z,6.95
2017-05-09T00:59:47.297Z,5.77
2017-05-09T01:02:14.710Z,6.27
2017-05-09T01:04:41.662Z,6.35
2017-05-09T01:07:08.566Z,5.92
2017-05-09T01:09:36.209Z,5.85
2017-05-09T01:12:03.118Z,6.05
2017-05-09T01:14:30.047Z,6.12
2017-05-09T01:16:56.988Z,6.05
2017-05-09T01:19:23.930Z,7.58
2017-05-09T01:21:50.118Z,8.10
2017-05-09T01:24:17.058Z,8.02
2017-05-09T01:26:43.993Z,8.30
2017-05-09T01:29:10.910Z,8.62
2017-05-09T01:31:37.858Z,8.50
2017-05-09T01:34:05.541Z,9.88
2017-05-09T01:36:32.493Z,9.70
2017-05-09T01:38:59.451Z,9.22
2017-05-09T01:41:26.394Z,9.30
2017-05-09T01:43:53.331Z,7.47
2017-05-09T01:46:20.269Z,7.63
2017-05-09T01:48:47.180Z,7.80
2017-05-09T01:51:14.118Z,7.13
2017-05-09T01:53:41.051Z,6.62
2017-05-09T01:56:07.969Z,6.75
2017-05-09T01:58:34.876Z,6.92
2017-05-09T02:01:02.533Z,6.12
2017-05-09T02:03:29.453Z,6.18
2017-05-09T02:05:56.367Z,6.10
2017-05-09T02:08:23.298Z,6.52
2017-05-09T02:10:50.221Z,5.83
2017-05-09T02:13:17.131Z,5.90
2017-05-09T02:15:44.059Z,5.92
2017-05-09T02:18:11.006Z,5.95
2017-05-09T02:20:37.931Z,6.20
2017-05-09T02:23:05.193Z,6.30
2017-05-09T02:25:32.126Z,8.12
2017-05-09T02:27:59.037Z,8.43
2017-05-09T02:30:26.066Z,7.68
2017-05-09T02:32:53.730Z,6.50
2017-05-09T02:35:21.374Z,7.37
2017-05-09T02:37:48.385Z,8.87
2017-05-09T02:40:15.299Z,7.97
2017-05-09T02:42:42.230Z,7.55
2017-05-09T02:45:10.255Z,6.65
2017-05-09T02:47:37.173Z,7.40
2017-05-09T02:50:04.112Z,7.85
2017-05-09T02:52:31.045Z,7.10
2017-05-09T02:54:57.978Z,6.70
2017-05-09T02:57:24.899Z,7.40
2017-05-09T02:59:52.644Z,6.27
2017-05-09T03:02:19.567Z,6.98
2017-05-09T03:04:46.479Z,6.55
2017-05-09T03:07:13.412Z,6.77
2017-05-09T03:09:39.587Z,5.93
2017-05-09T03:12:06.533Z,7.23
2017-05-09T03:14:33.445Z,8.48
2017-05-09T03:17:00.353Z,7.88
2017-05-09T03:19:28.040Z,7.88
2017-05-09T03:21:55.344Z,7.22
2017-05-09T03:24:22.238Z,7.40
2017-05-09T03:26:49.178Z,5.90
2017-05-09T03:29:16.118Z,6.92
2017-05-09T03:31:43.051Z,7.10
2017-05-09T03:34:10.713Z,8.07
2017-05-09T03:36:38.381Z,8.12
2017-05-09T03:39:05.318Z,8.65
2017-05-09T03:41:33.010Z,8.33
2017-05-09T03:43:59.986Z,8.75
2017-05-09T03:46:26.926Z,10.98
2017-05-09T03:48:53.863Z,11.22
2017-05-09T03:51:21.030Z,10.60
2017-05-09T03:53:47.970Z,10.60
2017-05-09T03:56:14.923Z,10.77
2017-05-09T03:58:41.858Z,10.62
2017-05-09T04:01:08.811Z,11.18
2017-05-09T04:03:35.771Z,12.17
2017-05-09T04:06:02.749Z,11.23
2017-05-09T04:08:29.695Z,13.17
2017-05-09T04:10:56.671Z,11.63
2017-05-09T04:13:23.684Z,11.55
2017-05-09T04:15:50.773Z,11.18
2017-05-09T04:18:17.719Z,12.47
2017-05-09T04:20:44.915Z,11.47
2017-05-09T04:23:12.814Z,10.85
2017-05-09T04:25:40.145Z,10.95
2017-05-09T04:28:07.114Z,13.30
2017-05-09T04:30:34.062Z,12.97
2017-05-09T04:33:00.986Z,11.80
2017-05-09T04:35:27.947Z,11.08
2017-05-09T04:37:54.865Z,11.38
2017-05-09T04:40:21.813Z,11.05
2017-05-09T04:42:48.743Z,11.23
2017-05-09T04:45:15.677Z,10.83
2017-05-09T04:47:43.429Z,10.40
2017-05-09T04:50:10.394Z,9.77
2017-05-09T04:52:37.360Z,9.60
2017-05-09T04:55:04.332Z,8.80
2017-05-09T04:57:31.299Z,7.52
2017-05-09T04:59:58.268Z,7.17
2017-05-09T05:02:25.951Z,7.17
2017-05-09T05:04:52.933Z,6.10
2017-05-09T05:07:19.898Z,6.17
2017-05-09T05:09:46.831Z,5.98
2017-05-09T05:12:13.797Z,5.77
2017-05-09T05:14:40.757Z,5.88
2017-05-09T05:17:07.695Z,6.30
2017-05-09T05:19:35.518Z,6.55
2017-05-09T05:22:02.434Z,6.23
2017-05-09T05:24:29.363Z,7.23
2017-05-09T05:26:56.314Z,6.84
2017-05-09T05:29:23.338Z,6.85
2017-05-09T05:31:51.016Z,5.52
2017-05-09T05:34:17.993Z,5.72
2017-05-09T05:36:45.016Z,5.25
2017-05-09T05:39:11.943Z,5.50
2017-05-09T05:41:38.906Z,5.10
2017-05-09T05:44:05.903Z,5.03
2017-05-09T05:46:32.878Z,4.43
2017-05-09T05:48:59.878Z,3.52
2017-05-09T05:51:26.812Z,4.23
2017-05-09T05:53:53.751Z,4.30
2017-05-09T05:56:21.118Z,4.58
2017-05-09T05:58:48.071Z,4.48
2017-05-09T06:01:14.998Z,3.75
2017-05-09T06:03:41.938Z,4.40
2017-05-09T06:06:09.718Z,4.52
2017-05-09T06:08:37.626Z,4.30
2017-05-09T06:11:05.336Z,5.00
2017-05-09T06:13:32.257Z,4.08
2017-05-09T06:15:59.213Z,4.20
2017-05-09T06:18:26.163Z,4.33
2017-05-09T06:20:53.111Z,4.32
2017-05-09T06:23:20.062Z,3.80
2017-05-09T06:25:46.990Z,4.00
2017-05-09T06:28:13.922Z,4.13
2017-05-09T06:30:40.862Z,3.70
2017-05-09T06:33:07.811Z,4.00
2017-05-09T06:35:34.743Z,4.38
2017-05-09T06:38:01.685Z,3.58
2017-05-09T06:40:28.623Z,5.20
2017-05-09T06:42:55.563Z,8.43
2017-05-09T06:45:23.237Z,5.17
2017-05-09T06:47:50.316Z,4.05
2017-05-09T06:50:17.278Z,4.03
2017-05-09T06:52:44.235Z,3.82
2017-05-09T06:55:11.206Z,3.82
2017-05-09T06:57:38.195Z,3.70
2017-05-09T07:00:05.118Z,3.60
2017-05-09T07:02:32.050Z,4.50
2017-05-09T07:04:59.005Z,4.27
2017-05-09T07:07:25.935Z,9.10
2017-05-09T07:09:52.889Z,6.25
2017-05-09T07:12:19.809Z,4.55
2017-05-09T07:14:46.738Z,3.90
2017-05-09T07:17:13.688Z,3.48
2017-05-09T07:19:41.375Z,3.87
2017-05-09T07:22:08.315Z,3.43
2017-05-09T07:24:35.379Z,3.38
2017-05-09T07:27:02.315Z,5.47
2017-05-09T07:29:29.271Z,2.60
2017-05-09T07:31:56.222Z,2.98
2017-05-09T07:34:23.167Z,2.90
2017-05-09T07:36:50.114Z,2.58
2017-05-09T07:39:17.080Z,2.30
2017-05-09T07:41:44.042Z,3.30
2017-05-09T07:44:11.623Z,2.68
2017-05-09T07:46:38.583Z,2.97
2017-05-09T07:49:05.599Z,4.73
2017-05-09T07:51:33.294Z,2.60
2017-05-09T07:54:00.253Z,2.20
2017-05-09T07:56:27.256Z,2.20
2017-05-09T07:58:54.941Z,2.15
2017-05-09T08:01:21.897Z,2.17
2017-05-09T08:03:48.820Z,2.40
2017-05-09T08:06:15.881Z,2.30
2017-05-09T08:08:42.825Z,2.50
2017-05-09T08:11:09.775Z,3.00
2017-05-09T08:13:36.717Z,2.95
2017-05-09T08:16:03.674Z,2.83
2017-05-09T08:18:30.617Z,2.60
2017-05-09T08:20:57.551Z,3.00
2017-05-09T08:23:24.495Z,2.63
2017-05-09T08:25:51.439Z,2.40
2017-05-09T08:28:18.369Z,2.62
2017-05-09T08:30:45.344Z,2.28
2017-05-09T08:33:12.308Z,2.65
2017-05-09T08:35:39.262Z,2.60
2017-05-09T08:38:06.231Z,2.33
2017-05-09T08:40:33.910Z,2.10
2017-05-09T08:43:01.024Z,2.28
2017-05-09T08:45:27.982Z,2.50
2017-05-09T08:47:55.674Z,2.52
2017-05-09T08:50:22.610Z,2.30
2017-05-09T08:52:49.575Z,2.27
2017-05-09T08:55:16.528Z,2.23
2017-05-09T08:57:43.505Z,1.97
2017-05-09T09:00:10.750Z,1.90
2017-05-09T09:02:37.717Z,2.00
2017-05-09T09:05:04.668Z,3.04
2017-05-09T09:07:32.358Z,1.80
2017-05-09T09:09:59.298Z,1.90
2017-05-09T09:12:26.229Z,2.10
2017-05-09T09:14:53.187Z,1.97
2017-05-09T09:17:20.291Z,2.00
2017-05-09T09:19:47.225Z,2.00
2017-05-09T09:22:14.158Z,2.00
2017-05-09T09:24:41.128Z,1.78
2017-05-09T09:27:08.106Z,1.80
2017-05-09T09:29:35.046Z,2.10
2017-05-09T09:32:02.009Z,1.80
2017-05-09T09:34:28.970Z,1.60
2017-05-09T09:36:55.919Z,1.60
2017-05-09T09:39:22.859Z,1.72
2017-05-09T09:41:49.796Z,1.90
2017-05-09T09:44:16.734Z,1.53
2017-05-09T09:46:43.695Z,1.78
2017-05-09T09:49:10.755Z,1.60
2017-05-09T09:51:37.682Z,2.20
2017-05-09T09:54:04.620Z,1.70
2017-05-09T09:56:31.547Z,1.65
2017-05-09T09:58:58.491Z,1.58
2017-05-09T10:01:25.401Z,1.97
2017-05-09T10:03:53.069Z,1.76
2017-05-09T10:06:20.745Z,1.90
2017-05-09T10:08:47.686Z,2.12
2017-05-09T10:11:14.614Z,2.17
2017-05-09T10:13:42.323Z,1.70
2017-05-09T10:16:09.275Z,1.50
2017-05-09T10:18:36.227Z,1.50
2017-05-09T10:21:03.159Z,1.35
2017-05-09T10:23:30.095Z,1.33
2017-05-09T10:25:57.025Z,1.18
2017-05-09T10:28:23.987Z,1.42
2017-05-09T10:30:50.931Z,1.20
2017-05-09T10:33:17.854Z,1.20
2017-05-09T10:35:44.989Z,1.55
2017-05-09T10:38:12.726Z,1.50
2017-05-09T10:40:39.694Z,1.52
2017-05-09T10:43:07.389Z,1.43
2017-05-09T10:45:34.336Z,1.50
2017-05-09T10:48:01.288Z,1.63
2017-05-09T10:50:28.214Z,1.60
2017-05-09T10:52:55.142Z,1.70
2017-05-09T10:55:22.079Z,1.67
2017-05-09T10:57:49.023Z,1.50
2017-05-09T11:00:16.669Z,1.60
2017-05-09T11:02:44.371Z,1.65
2017-05-09T11:05:11.358Z,1.86
2017-05-09T11:07:38.335Z,1.70
2017-05-09T11:10:05.261Z,2.20
2017-05-09T11:12:32.238Z,1.50
2017-05-09T11:14:59.190Z,1.70
2017-05-09T11:17:26.270Z,1.70
2017-05-09T11:19:53.600Z,1.68
2017-05-09T11:22:20.625Z,1.56
2017-05-09T11:24:47.613Z,1.80
2017-05-09T11:27:14.596Z,1.82
2017-05-09T11:29:42.258Z,1.80
2017-05-09T11:32:09.942Z,1.80
2017-05-09T11:34:36.894Z,1.70
2017-05-09T11:37:03.832Z,1.90
2017-05-09T11:39:31.435Z,1.90
2017-05-09T11:41:59.637Z,2.05
2017-05-09T11:44:26.642Z,1.98
2017-05-09T11:46:53.579Z,1.88
2017-05-09T11:49:20.565Z,1.90
2017-05-09T11:51:47.548Z,2.06
2017-05-09T11:54:14.482Z,2.90
2017-05-09T11:56:41.486Z,5.28
2017-05-09T11:59:08.426Z,3.52
2017-05-09T12:01:35.395Z,2.57
2017-05-09T12:04:03.117Z,1.80
2017-05-09T12:06:30.031Z,2.28
2017-05-09T12:08:56.971Z,1.80
2017-05-09T12:11:23.956Z,2.10
2017-05-09T12:13:50.994Z,2.32
2017-05-09T12:16:18.026Z,2.20
2017-05-09T12:18:45.009Z,2.20
2017-05-09T12:21:11.998Z,2.22
2017-05-09T12:23:38.939Z,1.92
2017-05-09T12:26:05.915Z,2.14
2017-05-09T12:28:32.893Z,1.80
2017-05-09T12:30:59.850Z,2.10
2017-05-09T12:33:27.771Z,2.10
2017-05-09T12:35:55.079Z,2.13
2017-05-09T12:38:22.047Z,2.13
2017-05-09T12:40:49.530Z,1.70
2017-05-09T12:43:16.566Z,2.00
2017-05-09T12:45:44.682Z,2.30
2017-05-09T12:48:12.646Z,2.40
2017-05-09T12:50:40.384Z,2.20
2017-05-09T12:53:08.385Z,2.00
2017-05-09T12:55:35.355Z,1.94
2017-05-09T12:58:02.864Z,1.92
2017-05-09T13:00:29.969Z,2.13
2017-05-09T13:02:56.990Z,2.53
2017-05-09T13:05:24.690Z,2.77
2017-05-09T13:07:51.978Z,5.62
2017-05-09T13:10:19.004Z,1.96
2017-05-09T13:12:45.961Z,2.18
2017-05-09T13:15:12.899Z,2.15
2017-05-09T13:17:39.877Z,2.20
2017-05-09T13:20:07.597Z,3.77
2017-05-09T13:22:34.529Z,2.00
2017-05-09T13:25:01.597Z,9.42
2017-05-09T13:27:28.513Z,7.65
2017-05-09T13:29:55.596Z,7.40
2017-05-09T13:32:22.562Z,7.53
2017-05-09T13:34:50.266Z,2.45
2017-05-09T13:37:17.233Z,2.12
2017-05-09T13:39:44.203Z,2.70
2017-05-09T13:42:11.157Z,2.38
2017-05-09T13:44:38.095Z,2.40
2017-05-09T13:47:05.090Z,3.62
2017-05-09T13:49:32.060Z,2.97
2017-05-09T13:51:59.033Z,2.47
2017-05-09T13:54:26.252Z,2.60
2017-05-09T13:56:53.237Z,3.12
2017-05-09T13:59:20.169Z,2.68
2017-05-09T14:01:47.146Z,2.97
2017-05-09T14:04:14.823Z,2.32
2017-05-09T14:06:41.798Z,3.08
2017-05-09T14:09:08.776Z,2.70
2017-05-09T14:11:36.471Z,2.70
2017-05-09T14:14:03.438Z,3.12
2017-05-09T14:16:30.555Z,3.10
2017-05-09T14:18:57.554Z,2.78
2017-05-09T14:21:25.726Z,2.70
2017-05-09T14:23:52.737Z,2.70
2017-05-09T14:26:19.719Z,2.82
2017-05-09T14:28:46.739Z,2.82
2017-05-09T14:31:13.725Z,2.80
2017-05-09T14:33:41.009Z,3.20
2017-05-09T14:36:08.063Z,3.00
2017-05-09T14:38:35.003Z,3.07
2017-05-09T14:41:01.989Z,2.70
2017-05-09T14:43:28.927Z,2.83
2017-05-09T14:45:55.885Z,2.90
2017-05-09T14:48:22.843Z,3.30
2017-05-09T14:50:49.942Z,2.90
2017-05-09T14:53:16.955Z,3.28
2017-05-09T14:55:44.996Z,3.10
2017-05-09T14:58:12.005Z,3.28
2017-05-09T15:00:38.964Z,3.10
2017-05-09T15:03:05.912Z,4.00
2017-05-09T15:05:33.019Z,3.15
2017-05-09T15:07:59.982Z,3.30
2017-05-09T15:10:26.992Z,3.20
2017-05-09T15:12:54.665Z,2.83
2017-05-09T15:15:22.382Z,2.95
2017-05-09T15:17:49.780Z,2.88
2017-05-09T15:20:17.503Z,2.70
2017-05-09T15:22:44.787Z,2.68
2017-05-09T15:25:12.443Z,2.65
2017-05-09T15:27:39.386Z,2.63
2017-05-09T15:30:06.353Z,2.70
2017-05-09T15:32:33.293Z,2.83
2017-05-09T15:35:01.057Z,2.90
2017-05-09T15:37:28.815Z,2.80
2017-05-09T15:39:56.538Z,3.00
2017-05-09T15:42:23.654Z,2.93
2017-05-09T15:44:50.631Z,2.77
2017-05-09T15:47:17.608Z,2.77
2017-05-09T15:49:45.292Z,3.34
2017-05-09T15:52:12.595Z,4.35
2017-05-09T15:54:39.979Z,4.63
2017-05-09T15:57:07.647Z,3.67
2017-05-09T15:59:35.307Z,4.46
2017-05-09T16:02:03.005Z,3.23
2017-05-09T16:04:30.132Z,9.45
2017-05-09T16:06:57.250Z,3.85
2017-05-09T16:09:24.159Z,3.37
2017-05-09T16:11:51.103Z,3.52
2017-05-09T16:14:18.123Z,3.37
2017-05-09T16:16:45.063Z,3.57
2017-05-09T16:19:12.039Z,3.50
2017-05-09T16:21:38.961Z,3.00
2017-05-09T16:24:05.916Z,4.07
2017-05-09T16:26:33.269Z,6.48
2017-05-09T16:29:00.222Z,4.33
2017-05-09T16:31:27.163Z,3.28
2017-05-09T16:33:54.135Z,4.23
2017-05-09T16:36:21.071Z,3.77
2017-05-09T16:38:47.983Z,3.73
2017-05-09T16:41:14.953Z,3.47
2017-05-09T16:43:41.945Z,4.13
2017-05-09T16:46:08.997Z,3.32
2017-05-09T16:48:35.960Z,3.20
2017-05-09T16:51:03.373Z,3.23
2017-05-09T16:53:31.204Z,2.78
2017-05-09T16:55:58.276Z,3.25
2017-05-09T16:58:25.369Z,4.60
2017-05-09T17:00:52.314Z,3.57
2017-05-09T17:03:19.299Z,5.18
2017-05-09T17:05:46.321Z,4.00
2017-05-09T17:08:13.295Z,4.52
2017-05-09T17:10:40.230Z,3.75
2017-05-09T17:13:07.222Z,2.92
2017-05-09T17:15:34.947Z,3.70
2017-05-09T17:18:01.914Z,3.36
2017-05-09T17:20:29.657Z,4.07
2017-05-09T17:22:56.621Z,7.12
2017-05-09T17:25:26.200Z,4.60
2017-05-09T17:27:54.763Z,3.42
2017-05-09T17:30:22.741Z,5.50
2017-05-09T17:32:50.476Z,4.10
2017-05-09T17:35:17.482Z,3.67
2017-05-09T17:37:45.269Z,3.77
2017-05-09T17:40:13.155Z,4.10
2017-05-09T17:42:40.386Z,4.10
2017-05-09T17:45:07.367Z,4.10
2017-05-09T17:47:34.359Z,3.67
2017-05-09T17:50:02.407Z,4.13
2017-05-09T17:52:29.401Z,3.70
2017-05-09T17:54:56.414Z,3.53
2017-05-09T17:57:23.784Z,3.78
2017-05-09T17:59:51.536Z,3.38
2017-05-09T18:02:19.333Z,3.20
2017-05-09T18:04:46.292Z,3.40
2017-05-09T18:07:13.339Z,3.70
2017-05-09T18:09:40.496Z,3.70
2017-05-09T18:12:07.466Z,3.92
2017-05-09T18:14:34.430Z,3.70
2017-05-09T18:17:02.151Z,4.13
2017-05-09T18:19:29.215Z,3.88
2017-05-09T18:21:58.128Z,4.30
2017-05-09T18:24:25.251Z,4.32
2017-05-09T18:26:52.342Z,4.68
2017-05-09T18:29:19.757Z,4.30
2017-05-09T18:31:47.499Z,5.30
2017-05-09T18:34:14.532Z,7.70
2017-05-09T18:36:41.708Z,13.20
2017-05-09T18:39:08.688Z,12.68
2017-05-09T18:41:36.789Z,24.48
2017-05-09T18:44:03.813Z,13.75
2017-05-09T18:46:33.048Z,11.82
2017-05-09T18:49:00.123Z,7.33
2017-05-09T18:51:27.123Z,6.53
2017-05-09T18:53:54.132Z,6.73
2017-05-09T18:56:21.133Z,6.20
2017-05-09T18:58:48.159Z,6.42
2017-05-09T19:01:15.357Z,6.60
2017-05-09T19:03:42.832Z,6.60
2017-05-09T19:06:09.860Z,6.63
2017-05-09T19:08:36.974Z,6.35
2017-05-09T19:11:04.325Z,7.52
2017-05-09T19:13:32.366Z,7.28
2017-05-09T19:15:59.981Z,6.80
2017-05-09T19:18:27.685Z,6.87
2017-05-09T19:20:55.278Z,6.62
2017-05-09T19:23:22.392Z,6.85
2017-05-09T19:25:51.002Z,6.92
2017-05-09T19:28:18.660Z,7.20
2017-05-09T19:30:46.261Z,7.82
2017-05-09T19:33:14.521Z,7.90
2017-05-09T19:35:41.713Z,7.45
2017-05-09T19:38:09.470Z,8.38
2017-05-09T19:40:36.582Z,7.00
2017-05-09T19:43:03.925Z,7.48
2017-05-09T19:45:31.494Z,6.82
2017-05-09T19:47:58.908Z,8.40
2017-05-09T19:50:26.476Z,10.92
2017-05-09T19:52:54.907Z,10.57
2017-05-09T19:55:23.412Z,9.47
2017-05-09T19:57:51.575Z,8.02
2017-05-09T20:00:19.421Z,8.20
2017-05-09T20:02:47.869Z,8.20
2017-05-09T20:05:16.980Z,8.73
2017-05-09T20:07:43.991Z,8.20
2017-05-09T20:10:10.989Z,8.70
2017-05-09T20:12:38.003Z,8.20
2017-05-09T20:15:04.929Z,8.02
2017-05-09T20:17:32.907Z,11.68
2017-05-09T20:20:00.011Z,10.58
2017-05-09T20:22:26.984Z,10.00
2017-05-09T20:24:54.156Z,10.32
2017-05-09T20:27:21.107Z,8.92
2017-05-09T20:29:48.052Z,9.20
2017-05-09T20:32:14.981Z,9.90
2017-05-09T20:34:41.936Z,9.82
2017-05-09T20:37:08.927Z,10.57
2017-05-09T20:39:35.998Z,10.90
2017-05-09T20:42:03.891Z,11.48
2017-05-09T20:44:30.869Z,11.00
2017-05-09T20:46:57.833Z,11.33
2017-05-09T20:49:24.751Z,9.43
2017-05-09T20:51:51.687Z,8.65
2017-05-09T20:54:18.632Z,8.00
2017-05-09T20:56:45.578Z,7.55
2017-05-09T20:59:12.504Z,7.82
2017-05-09T21:01:39.438Z,7.82
2017-05-09T21:04:06.380Z,8.43
2017-05-09T21:06:33.297Z,7.87
2017-05-09T21:09:01.005Z,7.68
2017-05-09T21:11:28.021Z,7.62
2017-05-09T21:13:55.750Z,7.32
2017-05-09T21:16:22.708Z,7.60
2017-05-09T21:18:50.358Z,7.80
2017-05-09T21:21:17.294Z,7.67
2017-05-09T21:23:44.247Z,7.90
2017-05-09T21:26:11.173Z,8.18
2017-05-09T21:28:38.121Z,7.67
2017-05-09T21:31:05.073Z,7.90
2017-05-09T21:33:32.007Z,8.20
2017-05-09T21:35:58.988Z,7.83
2017-05-09T21:38:26.665Z,7.90
2017-05-09T21:40:53.651Z,7.93
2017-05-09T21:43:20.566Z,7.47
2017-05-09T21:45:47.522Z,7.75
2017-05-09T21:48:14.437Z,7.83
2017-05-09T21:50:41.349Z,8.20
2017-05-09T21:53:08.377Z,8.12
2017-05-09T21:55:35.285Z,8.37
2017-05-09T21:58:02.190Z,8.37
2017-05-09T22:00:29.139Z,9.08
2017-05-09T22:02:56.795Z,9.12
2017-05-09T22:05:23.731Z,9.15
2017-05-09T22:07:50.658Z,8.93
2017-05-09T22:10:17.577Z,8.80
2017-05-09T22:12:44.493Z,8.88
2017-05-09T22:15:11.434Z,8.78
2017-05-09T22:17:39.095Z,8.80
2017-05-09T22:20:06.766Z,9.53
2017-05-09T22:22:33.695Z,8.83
2017-05-09T22:25:01.368Z,8.83
2017-05-09T22:27:28.287Z,9.27
2017-05-09T22:29:55.224Z,9.10
2017-05-09T22:32:22.247Z,8.40
2017-05-09T22:34:49.164Z,9.07
2017-05-09T22:37:16.162Z,8.87
2017-05-09T22:39:43.098Z,8.98
2017-05-09T22:42:10.015Z,9.42
2017-05-09T22:44:36.990Z,8.45
2017-05-09T22:47:03.922Z,8.10
2017-05-09T22:49:30.835Z,9.20
2017-05-09T22:51:57.745Z,8.07
2017-05-09T22:54:25.389Z,8.92
2017-05-09T22:56:52.290Z,8.80
2017-05-09T22:59:19.210Z,8.72
2017-05-09T23:01:46.154Z,7.50
2017-05-09T23:04:13.066Z,7.55
2017-05-09T23:06:40.019Z,7.18
2017-05-09T23:09:07.661Z,7.12
2017-05-09T23:11:34.589Z,6.47
2017-05-09T23:14:01.515Z,6.62
2017-05-09T23:16:28.421Z,7.25
2017-05-09T23:18:56.119Z,7.44
2017-05-09T23:21:23.050Z,7.67
2017-05-09T23:23:49.978Z,7.35
2017-05-09T23:26:16.918Z,7.10
2017-05-09T23:28:43.872Z,6.07
2017-05-09T23:31:10.803Z,7.20
2017-05-09T23:33:37.743Z,7.20
2017-05-09T23:36:05.410Z,7.03
2017-05-09T23:38:32.357Z,6.87
2017-05-09T23:40:59.298Z,6.52
2017-05-09T23:43:26.239Z,6.67
2017-05-09T23:45:53.174Z,6.34
2017-05-09T23:48:20.850Z,6.80
2017-05-09T23:50:47.787Z,6.70
2017-05-09T23:53:15.455Z,6.67
2017-05-09T23:55:42.397Z,6.37
2017-05-09T23:58:09.338Z,7.10
